createdAt,value
2019-02-22T00:01:01.017Z,56.45
2019-02-22T00:03:29.277Z,56.46
2019-02-22T00:05:57.361Z,56.48
2019-02-22T00:08:25.346Z,56.49
2019-02-22T00:10:53.596Z,56.49
2019-02-22T00:13:21.686Z,56.50
2019-02-22T00:15:49.839Z,56.51
2019-02-22T00:18:17.792Z,56.55
2019-02-22T00:20:45.883Z,56.56
2019-02-22T00:23:13.834Z,56.55
2019-02-22T00:25:41.854Z,56.56
2019-02-22T00:28:09.838Z,56.58
2019-02-22T00:30:37.897Z,56.58
2019-02-22T00:33:05.864Z,56.58
2019-02-22T00:35:34.026Z,56.58
2019-02-22T00:38:02.174Z,56.59
2019-02-22T00:40:30.262Z,56.60
2019-02-22T00:42:58.333Z,56.60
2019-02-22T00:45:26.458Z,56.61
2019-02-22T00:47:54.445Z,56.63
2019-02-22T00:50:22.485Z,56.63
2019-02-22T00:52:50.554Z,56.68
2019-02-22T00:55:19.006Z,56.67
2019-02-22T00:57:47.042Z,56.68
2019-02-22T01:00:15.107Z,56.69
2019-02-22T01:02:43.125Z,56.70
2019-02-22T01:05:11.406Z,56.68
2019-02-22T01:07:39.578Z,56.66
2019-02-22T01:10:07.606Z,56.68
2019-02-22T01:12:35.593Z,56.67
2019-02-22T01:15:03.642Z,56.66
2019-02-22T01:17:31.609Z,56.66
2019-02-22T01:19:59.817Z,56.67
2019-02-22T01:22:28.166Z,56.66
2019-02-22T01:24:56.150Z,56.66
2019-02-22T01:27:24.288Z,56.65
2019-02-22T01:29:52.315Z,56.65
2019-02-22T01:32:20.289Z,56.67
2019-02-22T01:34:48.313Z,56.68
2019-02-22T01:37:16.283Z,56.68
2019-02-22T01:39:44.310Z,56.67
2019-02-22T01:42:12.295Z,56.67
2019-02-22T01:44:40.320Z,56.69
2019-02-22T01:47:08.367Z,56.68
2019-02-22T01:49:36.400Z,56.69
2019-02-22T01:52:04.451Z,56.70
2019-02-22T01:54:32.454Z,56.71
2019-02-22T01:57:00.446Z,56.70
2019-02-22T01:59:28.489Z,56.69
2019-02-22T02:01:56.814Z,56.70
2019-02-22T02:04:24.837Z,56.70
2019-02-22T02:06:53.233Z,56.70
2019-02-22T02:09:21.362Z,56.71
2019-02-22T02:11:49.393Z,56.72
2019-02-22T02:14:17.497Z,56.73
2019-02-22T02:16:45.732Z,56.72
2019-02-22T02:19:13.821Z,56.73
2019-02-22T02:21:41.874Z,56.72
2019-02-22T02:24:09.998Z,56.71
2019-02-22T02:26:38.074Z,56.72
2019-02-22T02:29:06.512Z,56.73
2019-02-22T02:31:34.502Z,56.72
2019-02-22T02:34:02.505Z,56.75
2019-02-22T02:36:30.620Z,56.75
2019-02-22T02:38:58.646Z,56.73
2019-02-22T02:41:26.808Z,56.75
2019-02-22T02:43:54.897Z,56.73
2019-02-22T02:46:23.037Z,56.71
2019-02-22T02:48:51.356Z,56.74
2019-02-22T02:51:19.583Z,56.73
2019-02-22T02:53:47.585Z,56.72
2019-02-22T02:56:15.693Z,56.75
2019-02-22T02:58:43.746Z,56.74
2019-02-22T03:01:11.745Z,56.77
2019-02-22T03:03:39.804Z,56.76
2019-02-22T03:06:16.919Z,56.78
2019-02-22T03:08:45.079Z,56.76
2019-02-22T03:11:20.777Z,56.76
2019-02-22T03:13:42.886Z,56.77
2019-02-22T03:16:10.833Z,56.81
2019-02-22T03:18:38.885Z,56.76
2019-02-22T03:21:06.922Z,56.81
2019-02-22T03:23:34.898Z,56.80
2019-02-22T03:26:02.871Z,56.81
2019-02-22T03:28:31.054Z,56.82
2019-02-22T03:30:58.947Z,56.82
2019-02-22T03:33:27.015Z,56.82
2019-02-22T03:35:54.953Z,56.82
2019-02-22T03:38:23.005Z,56.83
2019-02-22T03:40:51.041Z,56.83
2019-02-22T03:43:19.169Z,56.87
2019-02-22T03:45:47.040Z,56.87
2019-02-22T03:48:15.014Z,56.89
2019-02-22T03:50:42.970Z,56.87
2019-02-22T03:53:21.065Z,56.89
2019-02-22T03:55:49.022Z,56.88
2019-02-22T03:58:17.080Z,56.91
2019-02-22T04:00:45.037Z,56.91
2019-02-22T04:03:13.020Z,56.91
2019-02-22T04:05:41.046Z,56.93
2019-02-22T04:08:09.088Z,56.90
2019-02-22T04:10:37.186Z,56.97
2019-02-22T04:13:05.165Z,56.91
2019-02-22T04:15:33.467Z,56.90
2019-02-22T04:18:01.640Z,56.93
2019-02-22T04:20:30.043Z,56.93
2019-02-22T04:22:58.077Z,56.92
2019-02-22T04:25:26.078Z,56.91
2019-02-22T04:27:54.071Z,56.94
2019-02-22T04:30:22.195Z,56.94
2019-02-22T04:32:50.222Z,56.93
2019-02-22T04:35:18.206Z,56.95
2019-02-22T04:37:46.256Z,56.98
2019-02-22T04:40:14.294Z,57.00
2019-02-22T04:42:42.257Z,56.97
2019-02-22T04:45:10.334Z,56.98
2019-02-22T04:47:38.299Z,57.00
2019-02-22T04:50:06.928Z,56.99
2019-02-22T04:52:35.156Z,57.00
2019-02-22T04:55:03.292Z,57.00
2019-02-22T04:57:31.385Z,57.01
2019-02-22T04:59:59.437Z,57.03
2019-02-22T05:02:27.571Z,57.00
2019-02-22T05:04:55.511Z,57.02
2019-02-22T05:07:23.670Z,57.02
2019-02-22T05:09:51.726Z,57.04
2019-02-22T05:12:19.754Z,57.03
2019-02-22T05:14:47.804Z,57.01
2019-02-22T05:17:15.841Z,56.96
2019-02-22T05:19:43.889Z,56.90
2019-02-22T05:22:11.985Z,56.89
2019-02-22T05:24:40.202Z,56.89
2019-02-22T05:27:08.412Z,56.87
2019-02-22T05:29:36.530Z,56.88
2019-02-22T05:32:04.483Z,56.88
2019-02-22T05:34:32.535Z,56.88
2019-02-22T05:37:00.578Z,56.87
2019-02-22T05:39:28.563Z,56.83
2019-02-22T05:41:56.525Z,56.84
2019-02-22T05:44:24.657Z,56.82
2019-02-22T05:47:00.332Z,56.81
2019-02-22T05:49:22.635Z,56.79
2019-02-22T05:51:50.666Z,56.79
2019-02-22T05:54:18.863Z,56.79
2019-02-22T05:56:46.737Z,56.77
2019-02-22T05:59:14.886Z,56.76
2019-02-22T06:01:43.009Z,56.76
2019-02-22T06:04:11.058Z,56.76
2019-02-22T06:06:39.084Z,56.75
2019-02-22T06:09:07.069Z,56.74
2019-02-22T06:11:35.116Z,56.76
2019-02-22T06:14:03.106Z,56.78
2019-02-22T06:16:31.221Z,56.76
2019-02-22T06:18:59.273Z,56.76
2019-02-22T06:21:27.318Z,56.76
2019-02-22T06:23:55.505Z,56.75
2019-02-22T06:26:23.716Z,56.74
2019-02-22T06:28:51.764Z,56.74
2019-02-22T06:31:19.766Z,56.75
2019-02-22T06:33:48.040Z,56.73
2019-02-22T06:36:16.832Z,56.81
2019-02-22T06:38:46.735Z,56.58
2019-02-22T06:41:14.448Z,56.59
2019-02-22T06:43:42.517Z,56.58
2019-02-22T06:46:10.602Z,56.53
2019-02-22T06:48:38.731Z,56.56
2019-02-22T06:51:06.909Z,56.59
2019-02-22T06:53:34.960Z,56.61
2019-02-22T06:56:03.239Z,56.62
2019-02-22T06:58:31.345Z,56.59
2019-02-22T07:01:18.630Z,56.59
2019-02-22T07:03:47.062Z,56.57
2019-02-22T07:06:15.237Z,56.58
2019-02-22T07:08:43.321Z,56.57
2019-02-22T07:11:16.768Z,56.58
2019-02-22T07:13:44.966Z,56.57
2019-02-22T07:16:13.067Z,56.57
2019-02-22T07:18:41.166Z,56.56
2019-02-22T07:21:09.375Z,56.59
2019-02-22T07:23:37.539Z,56.60
2019-02-22T07:26:05.631Z,56.60
2019-02-22T07:28:33.969Z,56.59
2019-02-22T07:31:02.149Z,56.58
2019-02-22T07:33:30.241Z,56.59
2019-02-22T07:35:58.661Z,56.56
2019-02-22T07:38:27.957Z,56.56
2019-02-22T07:40:56.073Z,56.53
2019-02-22T07:43:24.178Z,56.57
2019-02-22T07:45:52.250Z,56.58
2019-02-22T07:48:20.290Z,56.55
2019-02-22T07:50:56.783Z,56.57
2019-02-22T07:53:18.204Z,56.58
2019-02-22T07:55:46.262Z,56.57
2019-02-22T07:58:14.523Z,56.59
2019-02-22T08:00:42.695Z,56.61
2019-02-22T08:03:10.780Z,56.61
2019-02-22T08:05:39.225Z,56.60
2019-02-22T08:08:07.230Z,56.61
2019-02-22T08:10:35.258Z,56.62
2019-02-22T08:13:03.318Z,56.71
2019-02-22T08:15:31.289Z,56.79
2019-02-22T08:17:59.390Z,56.80
2019-02-22T08:20:27.341Z,56.74
2019-02-22T08:22:55.406Z,56.70
2019-02-22T08:25:23.454Z,56.63
2019-02-22T08:27:54.052Z,56.61
2019-02-22T08:30:21.330Z,56.59
2019-02-22T08:32:49.345Z,56.66
2019-02-22T08:35:17.401Z,56.63
2019-02-22T08:37:45.446Z,56.60
2019-02-22T08:40:13.485Z,56.59
2019-02-22T08:42:41.649Z,56.59
2019-02-22T08:45:09.895Z,56.60
2019-02-22T08:47:37.917Z,56.59
2019-02-22T08:50:06.349Z,56.58
2019-02-22T08:52:34.769Z,56.58
2019-02-22T08:55:02.966Z,56.57
2019-02-22T08:57:31.153Z,56.57
2019-02-22T08:59:59.477Z,56.59
2019-02-22T09:02:27.465Z,56.66
2019-02-22T09:04:55.518Z,56.74
2019-02-22T09:07:23.653Z,56.76
2019-02-22T09:09:51.871Z,56.76
2019-02-22T09:12:19.943Z,56.72
2019-02-22T09:14:48.068Z,56.69
2019-02-22T09:17:16.329Z,56.63
2019-02-22T09:19:44.341Z,56.60
2019-02-22T09:22:22.473Z,56.57
2019-02-22T09:24:42.057Z,56.45
2019-02-22T09:29:44.510Z,56.30
2019-02-22T09:32:12.630Z,56.26
2019-02-22T09:37:29.362Z,56.31
2019-02-22T09:39:57.636Z,56.33
2019-02-22T09:42:25.669Z,56.33
2019-02-22T09:44:53.669Z,56.34
2019-02-22T09:47:21.696Z,56.36
2019-02-22T09:49:49.731Z,56.36
2019-02-22T09:52:17.788Z,56.37
2019-02-22T09:54:45.827Z,56.38
2019-02-22T09:57:13.822Z,56.41
2019-02-22T09:59:41.854Z,56.41
2019-02-22T10:02:10.096Z,56.43
2019-02-22T10:04:38.165Z,56.40
2019-02-22T10:07:06.209Z,56.39
2019-02-22T10:09:34.336Z,56.39
2019-02-22T10:12:02.574Z,56.39
2019-02-22T10:14:30.830Z,56.34
2019-02-22T10:16:58.787Z,56.31
2019-02-22T10:19:26.897Z,56.36
2019-02-22T10:21:57.396Z,56.37
2019-02-22T10:24:24.901Z,56.38
2019-02-22T10:26:52.950Z,56.32
2019-02-22T10:29:21.013Z,56.34
2019-02-22T10:31:49.256Z,56.28
2019-02-22T10:34:17.423Z,56.30
2019-02-22T10:36:45.718Z,56.32
2019-02-22T10:39:13.926Z,56.33
2019-02-22T10:41:41.985Z,56.37
2019-02-22T10:44:17.434Z,56.35
2019-02-22T10:46:39.954Z,56.35
2019-02-22T10:49:08.063Z,56.27
2019-02-22T10:51:36.027Z,56.20
2019-02-22T10:54:04.512Z,56.24
2019-02-22T10:56:32.826Z,56.09
2019-02-22T10:59:00.815Z,56.07
2019-02-22T11:01:28.887Z,56.07
2019-02-22T11:03:57.126Z,56.11
2019-02-22T11:06:25.220Z,56.08
2019-02-22T11:08:53.398Z,56.13
2019-02-22T11:11:21.431Z,56.16
2019-02-22T11:13:49.590Z,56.16
2019-02-22T11:16:17.665Z,55.84
2019-02-22T11:18:45.975Z,55.93
2019-02-22T11:21:14.159Z,56.18
2019-02-22T11:23:42.406Z,56.27
2019-02-22T11:26:10.576Z,56.27
2019-02-22T11:28:38.554Z,56.23
2019-02-22T11:31:06.652Z,56.22
2019-02-22T11:33:34.645Z,56.16
2019-02-22T11:36:02.774Z,56.10
2019-02-22T11:38:30.894Z,56.07
2019-02-22T11:40:59.007Z,56.08
2019-02-22T11:43:27.046Z,56.05
2019-02-22T11:45:55.303Z,56.08
2019-02-22T11:48:23.255Z,55.98
2019-02-22T11:50:51.293Z,55.99
2019-02-22T11:53:19.282Z,55.86
2019-02-22T11:55:47.380Z,55.85
2019-02-22T11:58:15.626Z,55.90
2019-02-22T12:01:04.267Z,55.98
2019-02-22T12:03:32.381Z,55.83
2019-02-22T12:06:00.377Z,55.88
2019-02-22T12:08:28.366Z,55.90
2019-02-22T12:10:56.396Z,55.83
2019-02-22T12:13:24.366Z,55.81
2019-02-22T12:15:52.413Z,55.75
2019-02-22T12:18:20.398Z,55.79
2019-02-22T12:20:48.563Z,55.85
2019-02-22T12:23:16.593Z,55.83
2019-02-22T12:25:44.951Z,55.83
2019-02-22T12:28:12.950Z,55.80
2019-02-22T12:33:14.467Z,55.78
2019-02-22T12:35:42.546Z,55.73
2019-02-22T12:38:10.490Z,55.58
2019-02-22T12:40:38.497Z,55.58
2019-02-22T12:43:06.522Z,55.61
2019-02-22T12:45:34.649Z,55.51
2019-02-22T12:48:02.672Z,55.60
2019-02-22T12:50:30.725Z,55.64
2019-02-22T12:52:58.758Z,55.62
2019-02-22T12:55:26.733Z,55.62
2019-02-22T12:57:54.802Z,55.64
2019-02-22T13:00:22.769Z,55.68
2019-02-22T13:03:01.276Z,55.66
2019-02-22T13:05:20.741Z,55.57
2019-02-22T13:07:48.783Z,55.61
2019-02-22T13:10:16.825Z,55.51
2019-02-22T13:12:44.773Z,55.42
2019-02-22T13:15:14.328Z,55.33
2019-02-22T13:17:42.819Z,55.19
2019-02-22T13:20:12.818Z,55.16
2019-02-22T13:22:40.909Z,55.03
2019-02-22T13:25:29.769Z,55.09
2019-02-22T13:27:57.742Z,55.11
2019-02-22T13:30:25.826Z,55.07
2019-02-22T13:32:53.770Z,54.99
2019-02-22T13:35:21.790Z,55.14
2019-02-22T13:37:49.811Z,55.24
2019-02-22T13:40:17.858Z,55.20
2019-02-22T13:42:45.981Z,55.14
2019-02-22T13:45:25.647Z,55.02
2019-02-22T13:47:43.911Z,55.00
2019-02-22T13:50:12.421Z,55.21
2019-02-22T13:52:40.842Z,55.18
2019-02-22T13:55:09.055Z,55.14
2019-02-22T13:57:37.394Z,55.10
2019-02-22T14:00:06.055Z,55.25
2019-02-22T14:02:34.266Z,55.29
2019-02-22T14:05:02.321Z,55.37
2019-02-22T14:07:30.454Z,55.40
2019-02-22T14:09:58.971Z,55.33
2019-02-22T14:12:27.044Z,55.41
2019-02-22T14:14:54.989Z,55.21
2019-02-22T14:17:23.022Z,54.98
2019-02-22T14:19:50.998Z,55.07
2019-02-22T14:22:19.049Z,54.97
2019-02-22T14:24:47.022Z,55.03
2019-02-22T14:27:15.181Z,55.18
2019-02-22T14:29:43.394Z,55.18
2019-02-22T14:32:11.514Z,55.05
2019-02-22T14:34:40.765Z,55.08
2019-02-22T14:37:09.152Z,55.29
2019-02-22T14:39:38.921Z,55.25
2019-02-22T14:42:07.132Z,55.02
2019-02-22T14:44:35.106Z,55.11
2019-02-22T14:47:03.246Z,55.25
2019-02-22T14:49:31.202Z,55.24
2019-02-22T14:51:59.281Z,55.15
2019-02-22T14:54:27.339Z,55.24
2019-02-22T14:56:55.562Z,55.17
2019-02-22T14:59:23.698Z,55.18
2019-02-22T15:01:52.005Z,55.29
2019-02-22T15:04:20.320Z,55.32
2019-02-22T15:06:48.650Z,55.37
2019-02-22T15:09:16.633Z,55.33
2019-02-22T15:11:44.734Z,55.34
2019-02-22T15:14:12.840Z,55.33
2019-02-22T15:16:53.625Z,55.33
2019-02-22T15:19:22.295Z,55.16
2019-02-22T15:21:50.403Z,55.24
2019-02-22T15:24:18.467Z,55.31
2019-02-22T15:26:46.448Z,55.03
2019-02-22T15:29:14.504Z,55.14
2019-02-22T15:31:42.552Z,55.12
2019-02-22T15:34:10.793Z,55.16
2019-02-22T15:36:38.900Z,55.20
2019-02-22T15:39:07.005Z,55.08
2019-02-22T15:41:35.151Z,54.94
2019-02-22T15:44:05.666Z,55.03
2019-02-22T15:46:33.298Z,54.89
2019-02-22T15:49:01.539Z,54.73
2019-02-22T15:51:29.609Z,54.69
2019-02-22T15:53:57.918Z,54.81
2019-02-22T15:56:25.942Z,54.82
2019-02-22T15:58:54.190Z,54.71
2019-02-22T16:01:23.566Z,54.71
2019-02-22T16:04:10.771Z,54.80
2019-02-22T16:06:38.862Z,54.74
2019-02-22T16:09:07.257Z,54.83
2019-02-22T16:11:35.329Z,54.75
2019-02-22T16:14:03.554Z,54.77
2019-02-22T16:16:32.614Z,54.79
2019-02-22T16:19:00.661Z,54.69
2019-02-22T16:21:28.618Z,54.71
2019-02-22T16:23:57.628Z,54.71
2019-02-22T16:26:29.062Z,54.61
2019-02-22T16:28:57.101Z,54.67
2019-02-22T16:31:25.190Z,54.72
2019-02-22T16:33:53.186Z,54.64
2019-02-22T16:36:21.166Z,54.66
2019-02-22T16:38:49.405Z,54.67
2019-02-22T16:41:17.481Z,54.75
2019-02-22T16:43:45.669Z,54.68
2019-02-22T16:46:13.710Z,54.58
2019-02-22T16:48:41.822Z,54.54
2019-02-22T16:51:09.746Z,54.67
2019-02-22T16:53:37.776Z,54.71
2019-02-22T16:56:05.838Z,54.75
2019-02-22T16:58:33.906Z,54.72
2019-02-22T17:01:01.854Z,54.68
2019-02-22T17:03:29.965Z,54.73
2019-02-22T17:05:58.170Z,54.71
2019-02-22T17:08:26.223Z,54.74
2019-02-22T17:10:54.270Z,54.68
2019-02-22T17:13:22.230Z,54.73
2019-02-22T17:15:50.286Z,54.72
2019-02-22T17:21:05.462Z,54.69
2019-02-22T17:23:33.614Z,54.67
2019-02-22T17:26:02.925Z,54.64
2019-02-22T17:28:30.969Z,54.65
2019-02-22T17:30:59.094Z,54.55
2019-02-22T17:33:27.265Z,54.64
2019-02-22T17:35:55.437Z,54.67
2019-02-22T17:38:23.482Z,54.66
2019-02-22T17:40:51.866Z,54.55
2019-02-22T17:43:19.959Z,54.62
2019-02-22T17:45:48.093Z,54.53
2019-02-22T17:48:16.034Z,54.43
2019-02-22T17:50:44.074Z,54.34
2019-02-22T17:53:12.049Z,54.33
2019-02-22T17:55:40.534Z,54.33
2019-02-22T17:58:08.502Z,54.26
2019-02-22T18:00:36.640Z,54.19
2019-02-22T18:03:04.701Z,54.23
2019-02-22T18:05:33.009Z,54.26
2019-02-22T18:08:01.146Z,54.19
2019-02-22T18:10:29.182Z,54.14
2019-02-22T18:12:57.280Z,54.01
2019-02-22T18:15:25.271Z,54.04
2019-02-22T18:17:53.302Z,53.89
2019-02-22T18:20:21.278Z,54.03
2019-02-22T18:22:49.262Z,53.79
2019-02-22T18:25:17.257Z,53.26
2019-02-22T18:27:45.226Z,53.59
2019-02-22T18:30:13.608Z,53.44
2019-02-22T18:32:41.680Z,53.44
2019-02-22T18:35:09.721Z,53.52
2019-02-22T18:37:37.669Z,53.34
2019-02-22T18:40:06.899Z,53.42
2019-02-22T18:42:35.186Z,53.49
2019-02-22T18:45:03.310Z,53.45
2019-02-22T18:47:31.443Z,53.59
2019-02-22T18:49:59.403Z,53.34
2019-02-22T18:52:27.550Z,53.59
2019-02-22T18:54:55.853Z,53.67
2019-02-22T18:57:23.997Z,53.82
2019-02-22T18:59:52.018Z,53.62
2019-02-22T19:02:20.401Z,53.66
2019-02-22T19:04:48.446Z,53.74
2019-02-22T19:07:16.483Z,53.76
2019-02-22T19:09:44.495Z,53.69
2019-02-22T19:12:12.507Z,53.66
2019-02-22T19:14:40.490Z,53.54
2019-02-22T19:17:08.684Z,53.76
2019-02-22T19:19:36.705Z,53.79
2019-02-22T19:22:09.540Z,53.79
2019-02-22T19:24:37.590Z,53.74
2019-02-22T19:27:05.605Z,53.53
2019-02-22T19:29:34.009Z,53.13
2019-02-22T19:32:02.125Z,53.79
2019-02-22T19:34:30.092Z,53.65
2019-02-22T19:36:58.118Z,53.62
2019-02-22T19:39:27.984Z,53.70
2019-02-22T19:41:56.075Z,53.86
2019-02-22T19:44:24.090Z,53.66
2019-02-22T19:46:52.176Z,53.82
2019-02-22T19:49:20.216Z,53.48
2019-02-22T19:51:48.461Z,53.48
2019-02-22T19:54:16.674Z,53.70
2019-02-22T19:56:44.794Z,53.76
2019-02-22T19:59:12.763Z,53.71
2019-02-22T20:01:40.861Z,53.18
2019-02-22T20:04:09.090Z,53.19
2019-02-22T20:06:37.237Z,53.40
2019-02-22T20:09:06.155Z,52.90
2019-02-22T20:11:34.308Z,53.60
2019-02-22T20:14:02.413Z,53.24
2019-02-22T20:16:30.637Z,53.49
2019-02-22T20:18:58.849Z,53.47
2019-02-22T20:21:26.902Z,53.37
2019-02-22T20:23:54.902Z,53.35
2019-02-22T20:26:23.012Z,53.30
2019-02-22T20:28:51.254Z,53.20
2019-02-22T20:31:20.601Z,53.08
2019-02-22T20:33:48.966Z,53.57
2019-02-22T20:36:27.764Z,53.34
2019-02-22T20:38:46.957Z,53.46
2019-02-22T20:41:15.014Z,54.10
2019-02-22T20:43:43.051Z,53.03
2019-02-22T20:46:11.114Z,53.33
2019-02-22T20:49:00.745Z,53.37
2019-02-22T20:51:28.020Z,53.37
2019-02-22T20:53:56.382Z,53.23
2019-02-22T20:56:24.433Z,53.24
2019-02-22T20:58:52.525Z,53.05
2019-02-22T21:01:20.749Z,53.29
2019-02-22T21:03:49.094Z,53.32
2019-02-22T21:06:17.264Z,53.28
2019-02-22T21:08:45.394Z,53.41
2019-02-22T21:11:13.533Z,53.53
2019-02-22T21:13:41.581Z,53.41
2019-02-22T21:16:09.710Z,53.62
2019-02-22T21:18:37.950Z,53.27
2019-02-22T21:21:06.205Z,53.32
2019-02-22T21:23:34.234Z,53.18
2019-02-22T21:26:02.217Z,53.35
2019-02-22T21:28:30.384Z,53.42
2019-02-22T21:30:58.701Z,53.34
2019-02-22T21:33:26.953Z,53.07
2019-02-22T21:35:55.434Z,53.34
2019-02-22T21:38:23.765Z,53.15
2019-02-22T21:40:51.861Z,53.22
2019-02-22T21:43:20.069Z,52.95
2019-02-22T21:45:48.130Z,53.12
2019-02-22T21:48:26.934Z,53.13
2019-02-22T21:50:45.914Z,53.17
2019-02-22T21:53:14.126Z,52.31
2019-02-22T21:55:42.442Z,52.63
2019-02-22T21:58:10.397Z,52.84
2019-02-22T22:00:38.393Z,52.92
2019-02-22T22:03:06.471Z,53.08
2019-02-22T22:05:34.552Z,52.86
2019-02-22T22:08:02.530Z,52.92
2019-02-22T22:10:30.766Z,53.17
2019-02-22T22:12:59.026Z,53.12
2019-02-22T22:15:27.915Z,53.00
2019-02-22T22:17:55.945Z,52.59
2019-02-22T22:20:24.379Z,52.83
2019-02-22T22:22:52.324Z,52.97
2019-02-22T22:25:20.527Z,53.15
2019-02-22T22:27:48.622Z,53.20
2019-02-22T22:30:16.665Z,52.87
2019-02-22T22:32:44.737Z,53.03
2019-02-22T22:35:12.746Z,53.26
2019-02-22T22:37:40.681Z,53.34
2019-02-22T22:40:09.249Z,53.33
2019-02-22T22:42:37.442Z,53.28
2019-02-22T22:45:06.140Z,52.81
2019-02-22T22:47:34.410Z,52.79
2019-02-22T22:50:02.709Z,53.06
2019-02-22T22:52:30.754Z,52.89
2019-02-22T22:55:00.268Z,53.12
2019-02-22T22:57:28.530Z,53.14
2019-02-22T22:59:56.558Z,53.31
2019-02-22T23:02:24.797Z,53.31
2019-02-22T23:04:52.790Z,53.33
2019-02-22T23:07:20.829Z,53.47
2019-02-22T23:09:48.902Z,53.35
2019-02-22T23:12:17.157Z,53.50
2019-02-22T23:14:45.362Z,53.51
2019-02-22T23:17:13.569Z,53.45
2019-02-22T23:19:41.854Z,53.47
2019-02-22T23:22:09.951Z,53.10
2019-02-22T23:24:38.061Z,52.84
2019-02-22T23:27:06.451Z,52.94
2019-02-22T23:29:34.496Z,52.98
2019-02-22T23:32:02.846Z,53.36
2019-02-22T23:34:30.950Z,53.11
2019-02-22T23:36:59.070Z,53.22
2019-02-22T23:39:27.268Z,53.37
2019-02-22T23:41:55.186Z,53.54
2019-02-22T23:44:23.371Z,53.41
2019-02-22T23:46:51.498Z,53.34
2019-02-22T23:49:19.529Z,52.96
2019-02-22T23:51:47.511Z,53.33
2019-02-22T23:54:15.627Z,53.13
2019-02-22T23:56:43.709Z,52.97
2019-02-22T23:59:12.027Z,52.73
